createdAt,value
2023-02-11T00:01:31.174Z,18.57
2023-02-11T00:04:00.331Z,19.17
2023-02-11T00:06:30.026Z,20.27
2023-02-11T00:08:58.537Z,20.83
2023-02-11T00:11:30.379Z,20.53
2023-02-11T00:13:58.926Z,20.77
2023-02-11T00:16:28.931Z,21.17
2023-02-11T00:18:57.230Z,20.33
2023-02-11T00:21:26.818Z,21.80
2023-02-11T00:23:57.174Z,19.90
2023-02-11T00:26:27.165Z,20.70
2023-02-11T00:28:55.575Z,20.73
2023-02-11T00:31:24.433Z,22.40
2023-02-11T00:33:54.508Z,21.73
2023-02-11T00:36:25.000Z,23.17
2023-02-11T00:38:54.252Z,22.83
2023-02-11T00:41:23.020Z,20.77
2023-02-11T00:43:51.433Z,22.07
2023-02-11T00:46:19.368Z,22.73
2023-02-11T00:48:47.807Z,23.43
2023-02-11T00:51:17.246Z,24.77
2023-02-11T00:53:45.200Z,24.07
2023-02-11T00:56:13.327Z,22.97
2023-02-11T00:58:41.731Z,24.30
2023-02-11T01:01:09.805Z,24.50
2023-02-11T01:03:38.144Z,23.47
2023-02-11T01:06:06.943Z,24.30
2023-02-11T01:08:37.343Z,24.27
2023-02-11T01:11:07.215Z,24.97
2023-02-11T01:13:37.225Z,24.50
2023-02-11T01:16:08.435Z,25.97
2023-02-11T01:18:37.368Z,24.60
2023-02-11T01:21:06.210Z,24.73
2023-02-11T01:23:34.061Z,24.73
2023-02-11T01:26:03.174Z,26.10
2023-02-11T01:28:31.575Z,23.93
2023-02-11T01:30:59.470Z,24.03
2023-02-11T01:33:27.414Z,24.87
2023-02-11T01:35:55.199Z,23.83
2023-02-11T01:38:25.063Z,25.20
2023-02-11T01:40:55.424Z,24.07
2023-02-11T01:43:26.082Z,23.93
2023-02-11T01:45:59.875Z,25.23
2023-02-11T01:48:30.616Z,25.00
2023-02-11T01:51:01.540Z,25.73
2023-02-11T01:53:48.425Z,27.67
2023-02-11T01:56:34.809Z,24.50
2023-02-11T01:59:07.317Z,25.30
2023-02-11T02:01:35.945Z,26.07
2023-02-11T02:04:05.645Z,25.37
2023-02-11T02:06:36.147Z,26.60
2023-02-11T02:09:07.248Z,25.63
2023-02-11T02:11:35.007Z,26.07
2023-02-11T02:14:04.372Z,25.67
2023-02-11T02:16:35.471Z,24.97
2023-02-11T02:19:19.047Z,24.17
2023-02-11T02:22:14.313Z,23.20
2023-02-11T02:25:01.165Z,23.63
2023-02-11T02:27:37.330Z,24.50
2023-02-11T02:30:21.572Z,23.47
2023-02-11T02:33:02.145Z,23.60
2023-02-11T02:35:39.168Z,24.97
2023-02-11T02:38:09.949Z,23.73
2023-02-11T02:40:42.896Z,23.30
2023-02-11T02:43:11.814Z,24.20
2023-02-11T02:45:39.586Z,24.23
2023-02-11T02:48:08.750Z,23.03
2023-02-11T02:50:37.846Z,26.67
2023-02-11T02:53:14.056Z,23.13
2023-02-11T02:55:53.743Z,23.23
2023-02-11T02:58:40.212Z,21.87
2023-02-11T03:01:16.295Z,23.67
2023-02-11T03:03:50.891Z,23.17
2023-02-11T03:06:22.041Z,24.77
2023-02-11T03:08:54.045Z,22.60
2023-02-11T03:11:22.880Z,22.47
2023-02-11T03:13:51.515Z,22.77
2023-02-11T03:16:22.457Z,21.70
2023-02-11T03:18:54.452Z,22.37
2023-02-11T03:21:22.961Z,21.30
2023-02-11T03:23:52.714Z,23.80
2023-02-11T03:26:25.067Z,23.50
2023-02-11T03:28:56.287Z,22.70
2023-02-11T03:31:33.134Z,22.57
2023-02-11T03:34:08.704Z,22.43
2023-02-11T03:36:41.065Z,22.63
2023-02-11T03:39:10.485Z,21.53
2023-02-11T03:41:38.674Z,22.03
2023-02-11T03:44:07.435Z,21.43
2023-02-11T03:46:39.048Z,22.63
2023-02-11T03:49:11.135Z,23.80
2023-02-11T03:51:39.867Z,22.00
2023-02-11T03:54:11.671Z,23.43
2023-02-11T03:56:51.003Z,22.50
2023-02-11T03:59:19.121Z,22.90
2023-02-11T04:01:47.051Z,20.97
2023-02-11T04:04:16.681Z,22.17
2023-02-11T04:06:44.686Z,20.23
2023-02-11T04:09:12.903Z,22.70
2023-02-11T04:11:40.637Z,25.40
2023-02-11T04:14:08.368Z,23.47
2023-02-11T04:16:36.145Z,23.40
2023-02-11T04:19:03.970Z,24.07
2023-02-11T04:21:33.081Z,22.73
2023-02-11T04:24:00.861Z,22.90
2023-02-11T04:26:28.658Z,22.90
2023-02-11T04:28:56.378Z,22.53
2023-02-11T04:31:24.206Z,23.20
2023-02-11T04:33:52.067Z,23.93
2023-02-11T04:36:19.810Z,23.53
2023-02-11T04:38:49.273Z,25.10
2023-02-11T04:41:17.138Z,24.53
2023-02-11T04:43:44.980Z,26.03
2023-02-11T04:46:12.902Z,24.40
2023-02-11T04:48:41.199Z,25.77
2023-02-11T04:51:08.985Z,26.07
2023-02-11T04:53:36.722Z,25.47
2023-02-11T04:56:06.371Z,25.70
2023-02-11T04:58:34.133Z,27.70
2023-02-11T05:01:07.352Z,25.30
2023-02-11T05:03:35.267Z,25.83
2023-02-11T05:06:03.107Z,25.00
2023-02-11T05:08:31.103Z,24.73
2023-02-11T05:10:59.294Z,25.93
2023-02-11T05:13:28.518Z,24.77
2023-02-11T05:15:56.407Z,26.90
2023-02-11T05:18:24.384Z,23.90
2023-02-11T05:20:52.161Z,24.73
2023-02-11T05:23:19.873Z,24.30
2023-02-11T05:25:47.642Z,22.90
2023-02-11T05:28:15.413Z,23.50
2023-02-11T05:30:44.591Z,22.93
2023-02-11T05:33:12.397Z,24.03
2023-02-11T05:35:40.168Z,24.07
2023-02-11T05:38:07.950Z,24.23
2023-02-11T05:40:35.708Z,24.73
2023-02-11T05:43:03.463Z,23.67
2023-02-11T05:45:31.452Z,24.00
2023-02-11T05:48:00.767Z,24.97
2023-02-11T05:50:28.506Z,24.50
2023-02-11T05:52:56.365Z,27.13
2023-02-11T05:55:24.334Z,27.60
2023-02-11T05:57:52.050Z,26.60
2023-02-11T06:00:20.211Z,26.27
2023-02-11T06:02:48.074Z,26.43
2023-02-11T06:05:17.318Z,28.30
2023-02-11T06:07:45.065Z,28.13
2023-02-11T06:10:13.246Z,27.63
2023-02-11T06:12:41.047Z,27.47
2023-02-11T06:15:09.256Z,27.43
2023-02-11T06:17:37.488Z,28.07
2023-02-11T06:20:06.784Z,27.43
2023-02-11T06:22:36.150Z,28.07
2023-02-11T06:25:04.147Z,26.50
2023-02-11T06:27:32.145Z,28.23
2023-02-11T06:29:59.876Z,28.40
2023-02-11T06:32:45.369Z,28.33
2023-02-11T06:35:13.889Z,28.43
2023-02-11T06:37:43.528Z,29.33
2023-02-11T06:40:12.509Z,30.63
2023-02-11T06:42:40.377Z,28.40
2023-02-11T06:45:09.573Z,27.33
2023-02-11T06:47:37.446Z,28.00
2023-02-11T06:50:05.894Z,27.73
2023-02-11T06:52:33.767Z,27.83
2023-02-11T06:55:02.885Z,28.00
2023-02-11T06:57:31.344Z,28.70
2023-02-11T06:59:59.154Z,29.73
2023-02-11T07:02:26.957Z,30.40
2023-02-11T07:04:54.888Z,29.53
2023-02-11T07:07:22.718Z,26.03
2023-02-11T07:09:50.512Z,28.87
2023-02-11T07:12:19.641Z,30.53
2023-02-11T07:14:47.396Z,29.13
2023-02-11T07:17:15.607Z,29.23
2023-02-11T07:19:43.578Z,27.93
2023-02-11T07:22:11.344Z,28.03
2023-02-11T07:24:39.256Z,26.73
2023-02-11T07:27:10.229Z,27.57
2023-02-11T07:29:39.415Z,28.87
2023-02-11T07:32:07.434Z,27.17
2023-02-11T07:34:35.484Z,26.90
2023-02-11T07:37:03.256Z,28.07
2023-02-11T07:39:31.043Z,27.63
2023-02-11T07:41:58.811Z,28.43
2023-02-11T07:44:26.693Z,26.53
2023-02-11T07:46:55.834Z,27.30
2023-02-11T07:49:24.020Z,28.13
2023-02-11T07:51:53.290Z,27.20
2023-02-11T07:54:21.805Z,25.77
2023-02-11T07:56:49.751Z,26.60
2023-02-11T07:59:18.448Z,24.27
2023-02-11T08:01:47.637Z,24.90
2023-02-11T08:04:23.339Z,25.80
2023-02-11T08:06:52.923Z,26.53
2023-02-11T08:09:22.370Z,24.70
2023-02-11T08:11:51.251Z,25.00
2023-02-11T08:14:20.947Z,24.80
2023-02-11T08:16:48.725Z,24.43
2023-02-11T08:19:18.623Z,23.70
2023-02-11T08:21:47.189Z,24.13
2023-02-11T08:24:15.345Z,25.10
2023-02-11T08:26:43.659Z,25.63
2023-02-11T08:29:13.597Z,23.63
2023-02-11T08:31:43.459Z,24.87
2023-02-11T08:34:14.395Z,25.40
2023-02-11T08:36:44.894Z,22.83
2023-02-11T08:39:19.663Z,22.50
2023-02-11T08:41:49.553Z,24.03
2023-02-11T08:44:18.218Z,23.67
2023-02-11T08:46:46.312Z,23.37
2023-02-11T08:49:14.534Z,23.77
2023-02-11T08:51:44.196Z,22.40
2023-02-11T08:54:12.765Z,23.07
2023-02-11T08:56:40.861Z,23.77
2023-02-11T08:59:09.634Z,22.87
2023-02-11T09:01:37.926Z,22.73
2023-02-11T09:04:06.741Z,23.10
2023-02-11T09:06:34.664Z,22.23
2023-02-11T09:09:04.586Z,20.70
2023-02-11T09:11:34.478Z,21.33
2023-02-11T09:14:02.408Z,22.10
2023-02-11T09:16:33.027Z,23.37
2023-02-11T09:19:02.345Z,22.60
2023-02-11T09:21:30.564Z,22.37
2023-02-11T09:23:58.763Z,23.17
2023-02-11T09:26:29.788Z,23.23
2023-02-11T09:28:58.242Z,22.33
2023-02-11T09:31:28.504Z,22.50
2023-02-11T09:33:58.484Z,23.53
2023-02-11T09:36:28.966Z,22.47
2023-02-11T09:39:02.232Z,22.57
2023-02-11T09:41:49.639Z,24.23
2023-02-11T09:44:23.263Z,22.00
2023-02-11T09:46:55.818Z,23.10
2023-02-11T09:49:28.484Z,23.00
2023-02-11T09:52:00.122Z,23.90
2023-02-11T09:54:30.385Z,22.47
2023-02-11T09:56:59.835Z,22.43
2023-02-11T09:59:28.002Z,23.00
2023-02-11T10:02:00.425Z,24.07
2023-02-11T10:04:44.539Z,22.57
2023-02-11T10:07:19.781Z,22.60
2023-02-11T10:09:58.784Z,24.10
2023-02-11T10:12:39.146Z,22.50
2023-02-11T10:15:19.258Z,22.93
2023-02-11T10:17:58.045Z,24.13
2023-02-11T10:20:33.459Z,21.23
2023-02-11T10:23:03.110Z,23.30
2023-02-11T10:25:35.432Z,23.47
2023-02-11T10:28:14.308Z,23.47
2023-02-11T10:30:45.443Z,22.80
2023-02-11T10:33:18.237Z,23.50
2023-02-11T10:35:46.273Z,20.47
2023-02-11T10:38:14.844Z,20.80
2023-02-11T10:40:42.979Z,21.67
2023-02-11T10:43:15.510Z,22.10
2023-02-11T10:45:45.385Z,20.20
2023-02-11T10:48:39.978Z,20.23
2023-02-11T10:51:19.368Z,21.47
2023-02-11T10:53:47.976Z,20.83
2023-02-11T10:56:23.327Z,20.20
2023-02-11T10:58:59.788Z,20.47
2023-02-11T11:01:41.267Z,20.10
2023-02-11T11:04:33.779Z,18.23
2023-02-11T11:07:13.367Z,18.40
2023-02-11T11:09:48.596Z,17.37
2023-02-11T11:12:36.332Z,16.90
2023-02-11T11:15:19.970Z,17.50
2023-02-11T11:17:48.452Z,18.33
2023-02-11T11:20:28.205Z,18.23
2023-02-11T11:23:10.928Z,17.27
2023-02-11T11:25:41.170Z,17.13
2023-02-11T11:28:21.793Z,18.03
2023-02-11T11:30:53.023Z,17.83
2023-02-11T11:33:22.761Z,17.20
2023-02-11T11:36:04.032Z,17.53
2023-02-11T11:38:33.204Z,16.77
2023-02-11T11:41:32.532Z,15.70
2023-02-11T11:44:03.948Z,17.07
2023-02-11T11:46:35.817Z,16.07
2023-02-11T11:49:11.347Z,16.60
2023-02-11T11:51:40.708Z,15.77
2023-02-11T11:54:12.499Z,15.33
2023-02-11T11:56:43.924Z,16.70
2023-02-11T11:59:13.528Z,15.37
2023-02-11T12:01:49.550Z,14.70
2023-02-11T12:04:29.660Z,13.83
2023-02-11T12:07:06.843Z,14.43
2023-02-11T12:09:43.079Z,14.67
2023-02-11T12:12:32.150Z,13.03
2023-02-11T12:15:09.270Z,13.30
2023-02-11T12:18:01.123Z,13.20
2023-02-11T12:20:34.056Z,11.60
2023-02-11T12:23:16.676Z,12.67
2023-02-11T12:25:48.348Z,11.83
2023-02-11T12:28:24.938Z,12.27
2023-02-11T12:31:06.771Z,12.30
2023-02-11T12:33:51.093Z,12.03
2023-02-11T12:36:28.650Z,14.20
2023-02-11T12:39:08.718Z,12.40
2023-02-11T12:42:06.093Z,12.03
2023-02-11T12:44:40.224Z,12.93
2023-02-11T12:47:15.789Z,11.70
2023-02-11T12:50:03.726Z,11.37
2023-02-11T12:52:41.989Z,11.90
2023-02-11T12:55:16.073Z,12.97
2023-02-11T12:57:44.903Z,10.67
2023-02-11T13:00:18.716Z,11.87
2023-02-11T13:02:51.098Z,12.90
2023-02-11T13:05:28.223Z,10.40
2023-02-11T13:08:00.602Z,11.83
2023-02-11T13:10:31.806Z,11.77
2023-02-11T13:13:18.239Z,10.90
2023-02-11T13:15:49.749Z,11.50
2023-02-11T13:18:48.303Z,11.63
2023-02-11T13:21:39.784Z,11.20
2023-02-11T13:24:15.463Z,10.77
2023-02-11T13:26:48.466Z,11.17
2023-02-11T13:29:27.548Z,10.77
2023-02-11T13:31:56.719Z,10.83
2023-02-11T13:34:26.146Z,10.47
2023-02-11T13:36:58.846Z,9.97
2023-02-11T13:39:26.597Z,10.83
2023-02-11T13:42:03.508Z,12.03
2023-02-11T13:44:34.618Z,10.87
2023-02-11T13:47:04.740Z,10.63
2023-02-11T13:49:36.434Z,11.20
2023-02-11T13:52:07.598Z,11.10
2023-02-11T13:54:39.419Z,10.37
2023-02-11T13:57:30.946Z,11.53
2023-02-11T13:59:59.853Z,10.10
2023-02-11T14:02:50.339Z,10.10
2023-02-11T14:05:46.169Z,10.63
2023-02-11T14:08:42.968Z,10.27
2023-02-11T14:11:45.163Z,9.73
2023-02-11T14:14:18.354Z,10.40
2023-02-11T14:17:21.777Z,10.50
2023-02-11T14:19:50.474Z,10.20
2023-02-11T14:22:21.226Z,9.93
2023-02-11T14:24:53.440Z,9.33
2023-02-11T14:27:31.224Z,9.90
2023-02-11T14:30:16.053Z,9.70
2023-02-11T14:32:52.926Z,12.77
2023-02-11T14:35:25.210Z,10.77
2023-02-11T14:37:56.963Z,10.27
2023-02-11T14:40:30.421Z,10.13
2023-02-11T14:42:59.787Z,10.23
2023-02-11T14:45:29.333Z,11.47
2023-02-11T14:48:02.775Z,10.60
2023-02-11T14:50:35.319Z,11.00
2023-02-11T14:53:06.253Z,9.23
2023-02-11T14:55:37.143Z,9.67
2023-02-11T14:58:09.865Z,10.17
2023-02-11T15:00:37.647Z,9.40
2023-02-11T15:03:05.409Z,10.53
2023-02-11T15:05:33.111Z,9.63
2023-02-11T15:08:03.877Z,11.17
2023-02-11T15:10:36.141Z,11.07
2023-02-11T15:13:04.839Z,10.07
2023-02-11T15:15:33.269Z,10.17
2023-02-11T15:18:03.174Z,9.63
2023-02-11T15:20:32.869Z,10.50
2023-02-11T15:23:04.993Z,9.30
2023-02-11T15:25:34.244Z,10.27
2023-02-11T15:28:12.902Z,9.77
2023-02-11T15:30:40.632Z,10.87
2023-02-11T15:33:23.083Z,10.27
2023-02-11T15:35:51.800Z,10.03
2023-02-11T15:38:19.635Z,10.93
2023-02-11T15:40:54.002Z,11.40
2023-02-11T15:43:23.466Z,9.97
2023-02-11T15:45:57.954Z,10.43
2023-02-11T15:48:27.687Z,9.50
2023-02-11T15:50:57.240Z,10.83
2023-02-11T15:53:28.626Z,9.37
2023-02-11T15:56:02.581Z,9.37
2023-02-11T15:58:37.538Z,10.33
2023-02-11T16:01:06.778Z,11.17
2023-02-11T16:03:34.617Z,11.07
2023-02-11T16:06:20.048Z,11.53
2023-02-11T16:09:05.222Z,10.30
2023-02-11T16:11:34.153Z,11.90
2023-02-11T16:14:07.119Z,11.23
2023-02-11T16:16:35.984Z,10.97
2023-02-11T16:19:06.167Z,12.07
2023-02-11T16:21:38.848Z,11.57
2023-02-11T16:24:07.398Z,11.57
2023-02-11T16:26:37.670Z,12.13
2023-02-11T16:29:09.437Z,11.10
2023-02-11T16:31:38.587Z,12.40
2023-02-11T16:34:13.450Z,11.93
2023-02-11T16:36:41.187Z,12.63
2023-02-11T16:39:08.995Z,12.30
2023-02-11T16:41:36.702Z,13.97
2023-02-11T16:44:04.690Z,11.77
2023-02-11T16:46:34.347Z,12.43
2023-02-11T16:49:10.310Z,11.03
2023-02-11T16:51:40.819Z,11.00
2023-02-11T16:54:08.814Z,11.77
2023-02-11T16:56:36.560Z,12.50
2023-02-11T16:59:04.299Z,12.07
2023-02-11T17:01:33.916Z,11.30
2023-02-11T17:04:02.095Z,13.80
2023-02-11T17:06:30.013Z,12.93
2023-02-11T17:08:57.749Z,12.37
2023-02-11T17:11:25.516Z,12.10
2023-02-11T17:13:53.269Z,11.93
2023-02-11T17:16:24.956Z,13.13
2023-02-11T17:18:54.868Z,12.03
2023-02-11T17:21:27.574Z,12.70
2023-02-11T17:23:56.565Z,11.73
2023-02-11T17:26:24.309Z,11.73
2023-02-11T17:28:52.023Z,12.10
2023-02-11T17:31:20.069Z,12.30
2023-02-11T17:33:48.476Z,12.80
2023-02-11T17:36:17.613Z,12.10
2023-02-11T17:38:45.326Z,13.23
2023-02-11T17:41:13.104Z,12.20
2023-02-11T17:43:40.868Z,11.60
2023-02-11T17:46:10.023Z,11.67
2023-02-11T17:48:38.569Z,12.00
2023-02-11T17:51:08.783Z,12.17
2023-02-11T17:53:37.886Z,14.77
2023-02-11T17:56:07.296Z,15.87
2023-02-11T17:58:35.032Z,16.40
2023-02-11T18:01:02.840Z,13.87
2023-02-11T18:03:30.673Z,15.53
2023-02-11T18:06:00.845Z,15.23
2023-02-11T18:08:28.585Z,13.27
2023-02-11T18:10:57.805Z,14.40
2023-02-11T18:13:25.609Z,13.03
2023-02-11T18:15:53.612Z,12.53
2023-02-11T18:18:21.594Z,13.33
2023-02-11T18:20:56.989Z,13.13
2023-02-11T18:23:24.726Z,14.90
2023-02-11T18:25:52.757Z,14.70
2023-02-11T18:28:22.145Z,14.17
2023-02-11T18:30:49.910Z,14.57
2023-02-11T18:33:17.671Z,14.87
2023-02-11T18:35:45.917Z,13.30
2023-02-11T18:38:13.690Z,13.80
2023-02-11T18:40:41.605Z,19.47
2023-02-11T18:43:09.407Z,17.90
2023-02-11T18:45:38.514Z,16.50
2023-02-11T18:48:07.007Z,15.33
2023-02-11T18:50:34.734Z,14.90
2023-02-11T18:53:02.502Z,15.40
2023-02-11T18:55:30.365Z,15.70
2023-02-11T18:57:58.181Z,15.27
2023-02-11T19:00:26.116Z,14.70
2023-02-11T19:02:55.227Z,15.43
2023-02-11T19:05:23.008Z,14.93
2023-02-11T19:07:50.793Z,15.60
2023-02-11T19:10:18.861Z,15.23
2023-02-11T19:12:46.643Z,15.77
2023-02-11T19:15:15.133Z,15.77
2023-02-11T19:17:42.985Z,15.23
2023-02-11T19:20:12.898Z,17.07
2023-02-11T19:22:40.655Z,16.20
2023-02-11T19:25:08.711Z,17.07
2023-02-11T19:27:37.609Z,16.93
2023-02-11T19:30:05.919Z,18.33
2023-02-11T19:32:34.046Z,18.27
2023-02-11T19:35:01.771Z,19.13
2023-02-11T19:37:30.969Z,18.47
2023-02-11T19:39:58.687Z,18.20
2023-02-11T19:42:27.770Z,18.43
2023-02-11T19:44:55.561Z,18.23
2023-02-11T19:47:27.769Z,19.33
2023-02-11T19:49:55.873Z,18.83
2023-02-11T19:52:23.649Z,18.60
2023-02-11T19:54:53.027Z,19.33
2023-02-11T19:57:20.905Z,19.00
2023-02-11T19:59:49.812Z,18.53
2023-02-11T20:02:18.778Z,19.37
2023-02-11T20:04:46.548Z,19.93
2023-02-11T20:07:14.418Z,19.37
2023-02-11T20:09:42.646Z,18.13
2023-02-11T20:12:12.147Z,18.57
2023-02-11T20:14:40.089Z,18.67
2023-02-11T20:17:07.819Z,18.43
2023-02-11T20:19:35.758Z,18.67
2023-02-11T20:22:03.481Z,20.10
2023-02-11T20:24:31.246Z,21.37
2023-02-11T20:26:59.077Z,20.17
2023-02-11T20:29:32.058Z,19.37
2023-02-11T20:32:00.692Z,19.77
2023-02-11T20:34:29.500Z,19.47
2023-02-11T20:36:57.531Z,19.47
2023-02-11T20:39:26.861Z,20.13
2023-02-11T20:41:55.060Z,19.27
2023-02-11T20:44:23.351Z,19.50
2023-02-11T20:46:54.067Z,18.63
2023-02-11T20:49:24.347Z,21.57
2023-02-11T20:51:53.687Z,20.03
2023-02-11T20:54:22.372Z,19.27
2023-02-11T20:56:51.798Z,18.33
2023-02-11T20:59:20.973Z,19.67
2023-02-11T21:01:50.810Z,17.80
2023-02-11T21:04:21.779Z,18.60
2023-02-11T21:06:52.188Z,19.17
2023-02-11T21:09:22.000Z,19.97
2023-02-11T21:11:51.301Z,19.20
2023-02-11T21:14:20.292Z,19.83
2023-02-11T21:16:48.785Z,20.63
2023-02-11T21:19:17.042Z,22.17
2023-02-11T21:21:46.405Z,20.83
2023-02-11T21:24:14.308Z,21.17
2023-02-11T21:26:42.193Z,21.10
2023-02-11T21:29:10.385Z,23.03
2023-02-11T21:31:38.363Z,24.07
2023-02-11T21:34:07.256Z,22.73
2023-02-11T21:36:35.614Z,23.33
2023-02-11T21:39:05.999Z,23.10
2023-02-11T21:41:33.798Z,23.17
2023-02-11T21:44:01.759Z,23.40
2023-02-11T21:46:29.602Z,22.57
2023-02-11T21:48:58.378Z,22.77
2023-02-11T21:51:26.993Z,21.67
2023-02-11T21:53:55.757Z,21.73
2023-02-11T21:56:26.377Z,22.83
2023-02-11T21:58:55.753Z,24.33
2023-02-11T22:01:25.446Z,22.90
2023-02-11T22:03:53.368Z,24.53
2023-02-11T22:06:23.249Z,23.73
2023-02-11T22:08:51.348Z,24.67
2023-02-11T22:11:19.802Z,26.30
2023-02-11T22:13:49.246Z,24.63
2023-02-11T22:16:18.057Z,25.60
2023-02-11T22:18:46.518Z,25.70
2023-02-11T22:21:17.657Z,25.90
2023-02-11T22:23:45.926Z,27.13
2023-02-11T22:26:16.172Z,25.63
2023-02-11T22:28:44.134Z,26.03
2023-02-11T22:31:15.329Z,23.87
2023-02-11T22:33:43.356Z,25.57
2023-02-11T22:36:15.991Z,24.17
2023-02-11T22:38:43.738Z,24.90
2023-02-11T22:41:12.192Z,27.73
2023-02-11T22:43:40.415Z,25.83
2023-02-11T22:46:08.796Z,25.73
2023-02-11T22:48:38.013Z,25.87
2023-02-11T22:51:06.689Z,25.97
2023-02-11T22:53:34.994Z,27.37
2023-02-11T22:56:04.469Z,27.70
2023-02-11T22:58:32.575Z,28.17
2023-02-11T23:01:00.357Z,28.30
2023-02-11T23:03:28.702Z,30.57
2023-02-11T23:05:58.786Z,28.07
2023-02-11T23:08:27.478Z,28.40
2023-02-11T23:10:55.280Z,30.00
2023-02-11T23:13:23.212Z,31.00
2023-02-11T23:15:51.052Z,29.50
2023-02-11T23:18:18.943Z,30.60
2023-02-11T23:20:47.047Z,30.07
2023-02-11T23:23:18.291Z,29.83
2023-02-11T23:25:46.481Z,30.77
2023-02-11T23:28:14.646Z,30.90
2023-02-11T23:30:42.691Z,31.43
2023-02-11T23:33:10.819Z,30.13
2023-02-11T23:35:43.446Z,29.23
2023-02-11T23:38:11.443Z,31.67
2023-02-11T23:40:40.834Z,30.30
2023-02-11T23:43:10.438Z,31.57
2023-02-11T23:45:38.467Z,30.13
2023-02-11T23:48:06.495Z,31.17
2023-02-11T23:50:35.936Z,31.70
2023-02-11T23:53:04.178Z,32.30
2023-02-11T23:55:32.620Z,31.03
2023-02-11T23:58:02.277Z,31.43
